Terminal Aerodrome Forecast
Issued by NWS

Home | Current Version | Previous Version | Text Only | Print | Product List | Glossary On
Versions: 1 2 3 4 5 6 7 8 9 10 11 12 13 14
792
FTUS46 KPDT 211140
TAFALW
TAF
KALW 211140Z 2112/2212 17007KT 4SM BR BKN050 OVC100
     FM211500 16007KT P6SM BKN070
     FM211900 15004KT P6SM BKN070=

USA.gov is the U.S. government's official web portal to all federal, state and local government web resources and services.